createdAt,value
2022-09-23T00:00:00.119Z,1013.34
2022-09-23T00:00:32.410Z,1013.34
2022-09-23T00:00:54.992Z,1013.24
2022-09-23T00:01:17.402Z,1013.24
2022-09-23T00:01:52.702Z,1013.24
2022-09-23T00:02:24.306Z,1013.34
2022-09-23T00:02:59.505Z,1013.14
2022-09-23T00:03:21.987Z,1013.14
2022-09-23T00:04:00.488Z,1013.14
2022-09-23T00:04:32.196Z,1013.24
2022-09-23T00:04:54.614Z,1013.34
2022-09-23T00:05:17.010Z,1013.34
2022-09-23T00:05:52.549Z,1013.34
2022-09-23T00:06:23.999Z,1012.83
2022-09-23T00:06:56.168Z,1012.83
2022-09-23T00:07:22.090Z,1013.24
2022-09-23T00:08:00.408Z,1013.24
2022-09-23T00:08:32.159Z,1013.14
2022-09-23T00:08:54.751Z,1013.14
2022-09-23T00:09:16.890Z,1013.14
2022-09-23T00:09:52.418Z,1013.14
2022-09-23T00:10:24.087Z,1013.14
2022-09-23T00:10:56.132Z,1013.14
2022-09-23T00:11:25.840Z,1012.93
2022-09-23T00:12:00.721Z,1012.93
2022-09-23T00:12:33.438Z,1013.24
2022-09-23T00:13:01.502Z,1013.34
2022-09-23T00:13:18.589Z,1013.34
2022-09-23T00:13:55.335Z,1012.93
2022-09-23T00:14:17.808Z,1012.93
2022-09-23T00:14:56.264Z,1012.93
2022-09-23T00:15:25.847Z,1013.14
2022-09-23T00:16:00.041Z,1013.14
2022-09-23T00:16:31.938Z,1013.24
2022-09-23T00:16:54.641Z,1013.04
2022-09-23T00:17:16.966Z,1013.04
2022-09-23T00:17:52.085Z,1013.04
2022-09-23T00:18:24.074Z,1013.14
2022-09-23T00:18:55.870Z,1013.14
2022-09-23T00:19:25.788Z,1013.04
2022-09-23T00:20:00.086Z,1013.04
2022-09-23T00:20:32.016Z,1013.24
2022-09-23T00:20:54.797Z,1013.04
2022-09-23T00:21:17.119Z,1013.04
2022-09-23T00:21:52.052Z,1013.04
2022-09-23T00:22:24.030Z,1012.93
2022-09-23T00:22:55.864Z,1012.93
2022-09-23T00:23:25.799Z,1013.14
2022-09-23T00:24:00.145Z,1013.14
2022-09-23T00:24:32.026Z,1012.93
2022-09-23T00:24:54.737Z,1013.14
2022-09-23T00:25:17.145Z,1013.14
2022-09-23T00:25:51.901Z,1013.14
2022-09-23T00:26:24.097Z,1013.24
2022-09-23T00:26:56.007Z,1013.24
2022-09-23T00:27:25.699Z,1013.14
2022-09-23T00:27:59.899Z,1013.14
2022-09-23T00:28:31.919Z,1013.04
2022-09-23T00:28:54.983Z,1013.04
2022-09-23T00:29:17.369Z,1013.04
2022-09-23T00:29:51.932Z,1013.04
2022-09-23T00:30:24.149Z,1012.93
2022-09-23T00:30:56.065Z,1012.93
2022-09-23T00:31:25.864Z,1013.14
2022-09-23T00:32:00.539Z,1013.14
2022-09-23T00:32:32.010Z,1012.93
2022-09-23T00:32:54.962Z,1013.04
2022-09-23T00:33:17.298Z,1013.04
2022-09-23T00:33:52.085Z,1013.04
2022-09-23T00:34:24.045Z,1012.93
2022-09-23T00:34:55.920Z,1012.93
2022-09-23T00:35:25.697Z,1012.93
2022-09-23T00:35:59.880Z,1012.93
2022-09-23T00:36:31.997Z,1012.83
2022-09-23T00:36:54.720Z,1013.14
2022-09-23T00:37:18.652Z,1013.14
2022-09-23T00:37:51.973Z,1013.14
2022-09-23T00:38:24.040Z,1013.04
2022-09-23T00:38:56.507Z,1013.04
2022-09-23T00:39:25.679Z,1013.04
2022-09-23T00:40:00.001Z,1013.04
2022-09-23T00:40:32.114Z,1013.04
2022-09-23T00:40:54.781Z,1012.93
2022-09-23T00:41:17.471Z,1012.93
2022-09-23T00:41:52.162Z,1012.93
2022-09-23T00:42:23.914Z,1013.04
2022-09-23T00:42:55.894Z,1013.04
2022-09-23T00:43:25.962Z,1013.14
2022-09-23T00:44:00.050Z,1013.14
2022-09-23T00:44:32.274Z,1013.04
2022-09-23T00:44:54.858Z,1013.04
2022-09-23T00:45:17.226Z,1013.04
2022-09-23T00:45:52.248Z,1013.04
2022-09-23T00:46:24.199Z,1013.14
2022-09-23T00:46:55.876Z,1013.14
2022-09-23T00:47:25.829Z,1013.14
2022-09-23T00:48:00.241Z,1013.14
2022-09-23T00:48:32.008Z,1012.93
2022-09-23T00:48:55.396Z,1013.24
2022-09-23T00:49:17.572Z,1013.24
2022-09-23T00:49:52.018Z,1013.24
2022-09-23T00:50:24.107Z,1012.93
2022-09-23T00:50:55.989Z,1012.93
2022-09-23T00:51:25.689Z,1012.93
2022-09-23T00:51:59.945Z,1012.93
2022-09-23T00:52:32.042Z,1013.04
2022-09-23T00:52:55.002Z,1012.93
2022-09-23T00:53:17.387Z,1012.93
2022-09-23T00:53:51.883Z,1012.93
2022-09-23T00:54:24.041Z,1012.83
2022-09-23T00:54:55.950Z,1012.83
2022-09-23T00:55:27.980Z,1013.04
2022-09-23T00:56:00.054Z,1013.04
2022-09-23T00:56:31.913Z,1013.04
2022-09-23T00:56:54.886Z,1012.93
2022-09-23T00:57:17.223Z,1012.93
2022-09-23T00:57:52.002Z,1012.93
2022-09-23T00:58:23.875Z,1012.93
2022-09-23T00:58:56.028Z,1012.93
2022-09-23T00:59:25.693Z,1012.73
2022-09-23T00:59:59.983Z,1012.73
2022-09-23T01:00:32.105Z,1012.83
2022-09-23T01:00:56.622Z,1012.93
2022-09-23T01:01:19.489Z,1012.93
2022-09-23T01:01:52.469Z,1012.93
2022-09-23T01:02:24.104Z,1012.93
2022-09-23T01:02:56.086Z,1012.93
2022-09-23T01:03:26.093Z,1012.83
2022-09-23T01:04:00.022Z,1012.83
2022-09-23T01:04:33.515Z,1012.73
2022-09-23T01:04:56.214Z,1012.93
2022-09-23T01:05:18.539Z,1012.93
2022-09-23T01:05:53.052Z,1012.93
2022-09-23T01:06:24.266Z,1012.83
2022-09-23T01:06:56.389Z,1012.83
2022-09-23T01:07:25.911Z,1012.83
2022-09-23T01:08:00.135Z,1012.83
2022-09-23T01:08:32.343Z,1012.83
2022-09-23T01:08:54.988Z,1012.83
2022-09-23T01:09:17.534Z,1012.83
2022-09-23T01:09:51.916Z,1012.83
2022-09-23T01:10:24.651Z,1013.04
2022-09-23T01:10:56.051Z,1013.04
2022-09-23T01:11:25.819Z,1012.83
2022-09-23T01:11:59.852Z,1012.83
2022-09-23T01:12:32.489Z,1012.93
2022-09-23T01:12:55.130Z,1012.63
2022-09-23T01:13:18.564Z,1012.63
2022-09-23T01:13:52.292Z,1012.63
2022-09-23T01:14:25.650Z,1012.73
2022-09-23T01:15:02.578Z,1012.93
2022-09-23T01:15:24.752Z,1012.93
2022-09-23T01:15:59.932Z,1012.93
2022-09-23T01:16:32.042Z,1012.83
2022-09-23T01:16:54.828Z,1012.73
2022-09-23T01:17:17.137Z,1012.73
2022-09-23T01:17:52.087Z,1012.73
2022-09-23T01:18:23.865Z,1012.93
2022-09-23T01:18:56.011Z,1012.93
2022-09-23T01:19:28.328Z,1012.73
2022-09-23T01:20:00.062Z,1012.73
2022-09-23T01:20:32.052Z,1012.83
2022-09-23T01:20:55.215Z,1012.63
2022-09-23T01:21:17.466Z,1012.63
2022-09-23T01:21:51.936Z,1012.63
2022-09-23T01:22:21.440Z,1012.73
2022-09-23T01:22:56.092Z,1012.73
2022-09-23T01:23:26.088Z,1012.63
2022-09-23T01:23:59.840Z,1012.63
2022-09-23T01:24:33.546Z,1012.63
2022-09-23T01:24:56.263Z,1012.53
2022-09-23T01:25:18.911Z,1012.53
2022-09-23T01:25:58.511Z,1012.53
2022-09-23T01:26:24.397Z,1012.83
2022-09-23T01:31:44.383Z,1012.73
2022-09-23T01:32:06.577Z,1012.83
2022-09-23T01:32:29.444Z,1012.83
2022-09-23T01:32:51.847Z,1012.53
2022-09-23T01:33:14.486Z,1012.53
2022-09-23T01:33:52.747Z,1012.53
2022-09-23T01:34:24.275Z,1012.63
2022-09-23T01:34:57.478Z,1012.63
2022-09-23T01:35:26.684Z,1012.53
2022-09-23T01:36:00.838Z,1012.53
2022-09-23T01:36:31.965Z,1012.43
2022-09-23T01:36:54.824Z,1012.63
2022-09-23T01:37:18.796Z,1012.63
2022-09-23T01:37:52.491Z,1012.63
2022-09-23T01:38:24.870Z,1012.63
2022-09-23T01:38:56.570Z,1012.63
2022-09-23T01:39:26.193Z,1012.43
2022-09-23T01:40:00.024Z,1012.43
2022-09-23T01:40:33.288Z,1012.33
2022-09-23T01:40:55.872Z,1012.33
2022-09-23T01:41:18.301Z,1012.33
2022-09-23T01:41:52.027Z,1012.33
2022-09-23T01:42:23.928Z,1012.43
2022-09-23T01:42:57.553Z,1012.43
2022-09-23T01:43:25.919Z,1012.33
2022-09-23T01:44:00.618Z,1012.33
2022-09-23T01:44:33.180Z,1012.33
2022-09-23T01:44:55.824Z,1012.43
2022-09-23T01:45:18.262Z,1012.43
2022-09-23T01:45:52.176Z,1012.43
2022-09-23T01:46:24.700Z,1012.63
2022-09-23T01:46:59.792Z,1012.63
2022-09-23T01:47:26.818Z,1012.53
2022-09-23T01:48:00.446Z,1012.53
2022-09-23T01:48:32.047Z,1012.53
2022-09-23T01:48:54.760Z,1012.53
2022-09-23T01:49:17.407Z,1012.53
2022-09-23T01:49:52.492Z,1012.53
2022-09-23T01:50:24.018Z,1012.33
2022-09-23T01:50:56.207Z,1012.33
2022-09-23T01:51:26.010Z,1012.33
2022-09-23T01:52:00.760Z,1012.33
2022-09-23T01:52:32.036Z,1012.53
2022-09-23T01:52:54.611Z,1012.53
2022-09-23T01:53:17.432Z,1012.53
2022-09-23T01:53:52.160Z,1012.53
2022-09-23T01:54:24.110Z,1012.63
2022-09-23T01:54:56.028Z,1012.63
2022-09-23T01:55:26.347Z,1012.43
2022-09-23T01:55:59.906Z,1012.43
2022-09-23T01:56:32.436Z,1012.43
2022-09-23T01:56:55.101Z,1012.43
2022-09-23T01:57:17.789Z,1012.43
2022-09-23T01:57:51.987Z,1012.43
2022-09-23T01:58:24.039Z,1012.43
2022-09-23T01:58:56.757Z,1012.43
2022-09-23T01:59:29.165Z,1012.43
2022-09-23T02:00:00.089Z,1012.43
2022-09-23T02:00:32.341Z,1012.43
2022-09-23T02:01:02.547Z,1012.53
2022-09-23T02:01:17.747Z,1012.53
2022-09-23T02:01:52.917Z,1012.53
2022-09-23T02:02:26.813Z,1012.33
2022-09-23T02:02:56.530Z,1012.33
2022-09-23T02:03:26.508Z,1012.43
2022-09-23T02:03:59.911Z,1012.43
2022-09-23T02:04:32.106Z,1012.43
2022-09-23T02:04:54.895Z,1012.43
2022-09-23T02:05:17.173Z,1012.43
2022-09-23T02:05:52.056Z,1012.43
2022-09-23T02:06:24.456Z,1012.33
2022-09-23T02:06:56.516Z,1012.33
2022-09-23T02:07:25.958Z,1012.43
2022-09-23T02:08:00.027Z,1012.43
2022-09-23T02:08:32.422Z,1012.43
2022-09-23T02:08:54.979Z,1012.43
2022-09-23T02:09:17.455Z,1012.43
2022-09-23T02:09:54.018Z,1012.43
2022-09-23T02:10:24.061Z,1012.33
2022-09-23T02:10:55.854Z,1012.33
2022-09-23T02:11:26.234Z,1012.53
2022-09-23T02:12:00.215Z,1012.53
2022-09-23T02:12:33.293Z,1012.43
2022-09-23T02:12:55.976Z,1012.53
2022-09-23T02:13:18.585Z,1012.53
2022-09-23T02:13:51.981Z,1012.53
2022-09-23T02:14:26.649Z,1012.43
2022-09-23T02:14:56.167Z,1012.43
2022-09-23T02:15:25.884Z,1012.53
2022-09-23T02:16:00.416Z,1012.53
2022-09-23T02:16:32.021Z,1012.53
2022-09-23T02:16:54.673Z,1012.33
2022-09-23T02:17:17.184Z,1012.33
2022-09-23T02:17:55.365Z,1012.33
2022-09-23T02:18:24.779Z,1012.43
2022-09-23T02:18:56.476Z,1012.43
2022-09-23T02:19:26.181Z,1012.12
2022-09-23T02:20:01.324Z,1012.12
2022-09-23T02:20:32.438Z,1012.63
2022-09-23T02:20:56.720Z,1012.12
2022-09-23T02:21:17.937Z,1012.12
2022-09-23T02:21:56.955Z,1012.33
2022-09-23T02:22:23.993Z,1012.33
2022-09-23T02:23:04.238Z,1012.43
2022-09-23T02:23:27.098Z,1012.43
2022-09-23T02:24:00.235Z,1012.43
2022-09-23T02:24:32.471Z,1012.33
2022-09-23T02:24:54.604Z,1012.43
2022-09-23T02:25:18.056Z,1012.43
2022-09-23T02:25:52.341Z,1012.43
2022-09-23T02:26:26.332Z,1012.33
2022-09-23T02:26:57.562Z,1012.33
2022-09-23T02:27:29.148Z,1012.43
2022-09-23T02:27:59.803Z,1012.43
2022-09-23T02:28:32.247Z,1012.22
2022-09-23T02:28:54.973Z,1012.22
2022-09-23T02:29:17.391Z,1012.22
2022-09-23T02:29:53.050Z,1012.22
2022-09-23T02:30:24.056Z,1012.33
2022-09-23T02:30:57.852Z,1012.33
2022-09-23T02:31:25.891Z,1012.53
2022-09-23T02:32:03.437Z,1012.22
2022-09-23T02:32:25.982Z,1012.22
2022-09-23T02:32:57.550Z,1012.33
2022-09-23T02:33:20.118Z,1012.33
2022-09-23T02:33:52.358Z,1012.33
2022-09-23T02:34:24.735Z,1012.43
2022-09-23T02:34:55.952Z,1012.43
2022-09-23T02:35:26.603Z,1012.43
2022-09-23T02:35:59.878Z,1012.43
2022-09-23T02:36:32.052Z,1012.43
2022-09-23T02:36:54.706Z,1012.22
2022-09-23T02:37:23.339Z,1012.22
2022-09-23T02:37:52.842Z,1012.22
2022-09-23T02:38:24.156Z,1012.22
2022-09-23T02:38:56.595Z,1012.22
2022-09-23T02:39:26.065Z,1012.43
2022-09-23T02:40:01.454Z,1012.43
2022-09-23T02:40:32.076Z,1012.33
2022-09-23T02:40:54.876Z,1012.22
2022-09-23T02:41:17.545Z,1012.22
2022-09-23T02:41:52.100Z,1012.22
2022-09-23T02:42:24.043Z,1012.22
2022-09-23T02:42:55.898Z,1012.22
2022-09-23T02:43:26.461Z,1012.33
2022-09-23T02:44:00.080Z,1012.33
2022-09-23T02:44:31.941Z,1012.33
2022-09-23T02:44:54.739Z,1012.43
2022-09-23T02:45:17.594Z,1012.43
2022-09-23T02:45:53.257Z,1012.43
2022-09-23T02:46:24.094Z,1012.12
2022-09-23T02:46:57.318Z,1012.12
2022-09-23T02:47:28.238Z,1012.12
2022-09-23T02:48:01.478Z,1012.12
2022-09-23T02:48:32.866Z,1012.33
2022-09-23T02:48:55.035Z,1012.33
2022-09-23T02:49:20.833Z,1012.33
2022-09-23T02:49:51.974Z,1012.33
2022-09-23T02:50:25.293Z,1012.12
2022-09-23T02:50:56.165Z,1012.12
2022-09-23T02:51:27.309Z,1012.12
2022-09-23T02:52:00.474Z,1012.12
2022-09-23T02:52:34.315Z,1012.22
2022-09-23T02:52:55.612Z,1012.22
2022-09-23T02:53:18.859Z,1012.22
2022-09-23T02:53:52.039Z,1012.22
2022-09-23T02:54:24.341Z,1012.33
2022-09-23T02:54:56.409Z,1012.33
2022-09-23T02:55:25.908Z,1012.33
2022-09-23T02:56:00.596Z,1012.33
2022-09-23T02:56:31.934Z,1012.02
2022-09-23T02:56:54.700Z,1012.22
2022-09-23T02:57:18.488Z,1012.22
2022-09-23T02:57:52.392Z,1012.22
2022-09-23T02:58:26.631Z,1012.12
2022-09-23T02:58:56.295Z,1012.12
2022-09-23T02:59:31.782Z,1012.02
2022-09-23T02:59:59.889Z,1012.02
2022-09-23T03:00:33.022Z,1012.12
2022-09-23T03:00:55.731Z,1012.02
2022-09-23T03:01:18.596Z,1012.02
2022-09-23T03:01:52.053Z,1012.02
2022-09-23T03:02:24.015Z,1012.22
2022-09-23T03:02:56.067Z,1012.22
2022-09-23T03:03:26.953Z,1012.02
2022-09-23T03:03:59.978Z,1012.02
2022-09-23T03:04:32.340Z,1011.92
2022-09-23T03:04:55.012Z,1012.22
2022-09-23T03:05:17.442Z,1012.22
2022-09-23T03:05:51.923Z,1012.22
2022-09-23T03:06:23.898Z,1012.22
2022-09-23T03:06:55.981Z,1012.22
2022-09-23T03:07:25.893Z,1012.22
2022-09-23T03:07:59.929Z,1012.22
2022-09-23T03:08:31.869Z,1012.12
2022-09-23T03:08:54.812Z,1012.02
2022-09-23T03:09:17.728Z,1012.02
2022-09-23T03:09:52.381Z,1012.02
2022-09-23T03:10:24.659Z,1011.92
2022-09-23T03:10:56.314Z,1011.92
2022-09-23T03:11:27.343Z,1012.02
2022-09-23T03:11:59.963Z,1012.02
2022-09-23T03:12:31.973Z,1011.82
2022-09-23T03:12:54.600Z,1012.02
2022-09-23T03:13:17.833Z,1012.02
2022-09-23T03:13:51.940Z,1012.02
2022-09-23T03:14:24.716Z,1012.12
2022-09-23T03:14:56.354Z,1012.12
2022-09-23T03:15:26.423Z,1011.82
2022-09-23T03:16:00.614Z,1011.82
2022-09-23T03:16:32.355Z,1012.02
2022-09-23T03:16:55.418Z,1012.02
2022-09-23T03:17:17.848Z,1012.02
2022-09-23T03:17:53.912Z,1011.82
2022-09-23T03:18:24.395Z,1011.82
2022-09-23T03:18:56.917Z,1011.82
2022-09-23T03:19:27.896Z,1011.82
2022-09-23T03:20:00.539Z,1011.82
2022-09-23T03:20:31.966Z,1011.82
2022-09-23T03:20:54.564Z,1011.92
2022-09-23T03:21:17.049Z,1011.92
2022-09-23T03:21:52.404Z,1011.92
2022-09-23T03:22:24.214Z,1011.92
2022-09-23T03:22:56.006Z,1011.92
2022-09-23T03:23:28.399Z,1012.12
2022-09-23T03:24:00.069Z,1012.12
2022-09-23T03:24:32.010Z,1011.92
2022-09-23T03:24:54.733Z,1011.72
2022-09-23T03:25:17.787Z,1011.72
2022-09-23T03:25:53.197Z,1011.72
2022-09-23T03:26:24.157Z,1011.92
2022-09-23T03:26:55.856Z,1011.92
2022-09-23T03:27:26.565Z,1012.02
2022-09-23T03:28:00.188Z,1012.02
2022-09-23T03:28:32.194Z,1011.82
2022-09-23T03:28:54.981Z,1011.92
2022-09-23T03:29:18.194Z,1011.92
2022-09-23T03:29:51.861Z,1011.92
2022-09-23T03:30:24.066Z,1012.02
2022-09-23T03:30:55.939Z,1012.02
2022-09-23T03:31:25.989Z,1011.82
2022-09-23T03:32:00.012Z,1011.82
2022-09-23T03:32:32.705Z,1012.02
2022-09-23T03:32:55.491Z,1012.12
2022-09-23T03:33:17.959Z,1012.12
2022-09-23T03:33:52.339Z,1012.12
2022-09-23T03:34:24.074Z,1011.72
2022-09-23T03:34:55.997Z,1011.72
2022-09-23T03:35:25.706Z,1011.61
2022-09-23T03:36:00.301Z,1011.61
2022-09-23T03:36:32.086Z,1011.51
2022-09-23T03:36:54.686Z,1011.82
2022-09-23T03:37:22.760Z,1011.82
2022-09-23T03:37:53.211Z,1011.82
2022-09-23T03:38:24.194Z,1011.82
2022-09-23T03:38:57.049Z,1011.82
2022-09-23T03:39:28.522Z,1011.92
2022-09-23T03:40:00.720Z,1011.92
2022-09-23T03:40:32.630Z,1011.92
2022-09-23T03:40:55.290Z,1011.72
2022-09-23T03:41:17.547Z,1011.72
2022-09-23T03:41:52.025Z,1011.72
2022-09-23T03:42:23.847Z,1011.82
2022-09-23T03:42:56.245Z,1011.82
2022-09-23T03:43:25.891Z,1011.82
2022-09-23T03:44:00.138Z,1011.82
2022-09-23T03:44:31.982Z,1011.72
2022-09-23T03:44:54.665Z,1011.92
2022-09-23T03:45:17.242Z,1011.92
2022-09-23T03:45:52.179Z,1011.92
2022-09-23T03:46:24.362Z,1011.72
2022-09-23T03:46:55.876Z,1011.72
2022-09-23T03:47:26.965Z,1011.82
2022-09-23T03:48:00.279Z,1011.82
2022-09-23T03:48:32.755Z,1011.92
2022-09-23T03:48:55.453Z,1011.92
2022-09-23T03:49:17.889Z,1011.92
2022-09-23T03:49:52.865Z,1011.92
2022-09-23T03:50:25.300Z,1011.82
2022-09-23T03:50:56.654Z,1011.82
2022-09-23T03:51:25.903Z,1011.51
2022-09-23T03:52:00.203Z,1011.51
2022-09-23T03:52:32.042Z,1011.72
2022-09-23T03:52:54.648Z,1011.61
2022-09-23T03:53:17.382Z,1011.61
2022-09-23T03:53:51.962Z,1011.61
2022-09-23T03:54:24.861Z,1011.72
2022-09-23T03:54:55.977Z,1011.72
2022-09-23T03:55:25.894Z,1011.72
2022-09-23T03:55:59.886Z,1011.72
2022-09-23T03:56:32.009Z,1011.61
2022-09-23T03:56:55.006Z,1011.72
2022-09-23T03:57:17.222Z,1011.72
2022-09-23T03:57:52.871Z,1011.72
2022-09-23T03:58:23.754Z,1011.61
2022-09-23T03:58:56.270Z,1011.61
2022-09-23T03:59:26.015Z,1011.51
2022-09-23T03:59:59.887Z,1011.51
2022-09-23T04:00:31.867Z,1011.51
2022-09-23T04:00:56.249Z,1011.51
2022-09-23T04:01:18.647Z,1011.51
2022-09-23T04:01:52.279Z,1011.51
2022-09-23T04:02:25.972Z,1011.61
2022-09-23T04:02:59.591Z,1011.31
2022-09-23T04:03:22.281Z,1011.31
2022-09-23T04:04:00.307Z,1011.31
2022-09-23T04:04:31.945Z,1011.61
2022-09-23T04:04:55.911Z,1011.24
2022-09-23T04:05:18.062Z,1011.24
2022-09-23T04:05:51.912Z,1011.24
2022-09-23T04:06:23.919Z,1011.41
2022-09-23T04:06:55.818Z,1011.41
2022-09-23T04:07:25.762Z,1011.61
2022-09-23T04:07:59.887Z,1011.61
2022-09-23T04:08:31.946Z,1011.51
2022-09-23T04:08:54.585Z,1011.41
2022-09-23T04:09:17.000Z,1011.41
2022-09-23T04:09:51.923Z,1011.41
2022-09-23T04:10:23.936Z,1011.51
2022-09-23T04:10:55.906Z,1011.51
2022-09-23T04:11:25.776Z,1011.31
2022-09-23T04:11:59.894Z,1011.31
2022-09-23T04:12:32.038Z,1011.41
2022-09-23T04:12:54.967Z,1011.31
2022-09-23T04:13:17.347Z,1011.31
2022-09-23T04:13:51.935Z,1011.31
2022-09-23T04:14:24.015Z,1011.61
2022-09-23T04:14:55.987Z,1011.61
2022-09-23T04:15:25.967Z,1011.61
2022-09-23T04:15:59.968Z,1011.61
2022-09-23T04:16:32.071Z,1011.31
2022-09-23T04:16:54.689Z,1011.51
2022-09-23T04:17:16.996Z,1011.51
2022-09-23T04:17:51.950Z,1011.51
2022-09-23T04:18:23.798Z,1011.31
2022-09-23T04:18:55.803Z,1011.31
2022-09-23T04:19:25.710Z,1011.41
2022-09-23T04:19:59.750Z,1011.41
2022-09-23T04:20:31.939Z,1011.24
2022-09-23T04:20:54.942Z,1011.41
2022-09-23T04:21:17.337Z,1011.41
2022-09-23T04:21:51.897Z,1011.41
2022-09-23T04:22:25.361Z,1011.31
2022-09-23T04:22:55.792Z,1011.31
2022-09-23T04:23:26.064Z,1011.51
2022-09-23T04:23:59.850Z,1011.51
2022-09-23T04:24:33.380Z,1011.31
2022-09-23T04:24:55.040Z,1011.51
2022-09-23T04:25:17.447Z,1011.51
2022-09-23T04:25:51.955Z,1011.51
2022-09-23T04:26:23.874Z,1011.41
2022-09-23T04:26:55.914Z,1011.41
2022-09-23T04:27:25.775Z,1011.31
2022-09-23T04:27:59.926Z,1011.31
2022-09-23T04:28:33.285Z,1011.41
2022-09-23T04:28:55.059Z,1011.31
2022-09-23T04:29:17.279Z,1011.31
2022-09-23T04:29:52.041Z,1011.31
2022-09-23T04:30:23.873Z,1011.51
2022-09-23T04:30:55.831Z,1011.51
2022-09-23T04:31:26.018Z,1011.24
2022-09-23T04:32:00.010Z,1011.24
2022-09-23T04:32:32.014Z,1011.24
2022-09-23T04:32:54.679Z,1011.31
2022-09-23T04:33:16.965Z,1011.31
2022-09-23T04:33:51.898Z,1011.31
2022-09-23T04:34:23.883Z,1011.31
2022-09-23T04:34:56.318Z,1011.31
2022-09-23T04:35:25.733Z,1011.31
2022-09-23T04:35:59.804Z,1011.31
2022-09-23T04:36:31.978Z,1011.41
2022-09-23T04:36:54.821Z,1011.24
2022-09-23T04:37:22.742Z,1011.24
2022-09-23T04:37:51.866Z,1011.24
2022-09-23T04:38:23.965Z,1011.41
2022-09-23T04:38:55.809Z,1011.41
2022-09-23T04:39:25.821Z,1011.14
2022-09-23T04:39:59.825Z,1011.14
2022-09-23T04:40:31.999Z,1011.24
2022-09-23T04:40:54.591Z,1011.24
2022-09-23T04:41:17.030Z,1011.24
2022-09-23T04:41:51.904Z,1011.24
2022-09-23T04:42:23.766Z,1011.14
2022-09-23T04:42:55.870Z,1011.14
2022-09-23T04:43:25.855Z,1011.51
2022-09-23T04:44:03.404Z,1011.51
2022-09-23T04:44:31.863Z,1011.24
2022-09-23T04:44:54.775Z,1011.14
2022-09-23T04:45:17.089Z,1011.14
2022-09-23T04:45:52.020Z,1011.14
2022-09-23T04:46:24.067Z,1011.24
2022-09-23T04:46:55.987Z,1011.24
2022-09-23T04:47:25.798Z,1011.24
2022-09-23T04:48:01.415Z,1011.24
2022-09-23T04:48:34.421Z,1011.14
2022-09-23T04:48:56.336Z,1011.41
2022-09-23T04:49:18.576Z,1011.41
2022-09-23T04:49:52.075Z,1011.41
2022-09-23T04:50:23.879Z,1011.24
2022-09-23T04:50:55.785Z,1011.24
2022-09-23T04:51:22.014Z,1011.14
2022-09-23T04:52:00.454Z,1011.14
2022-09-23T04:52:31.848Z,1011.41
2022-09-23T04:52:54.487Z,1011.24
2022-09-23T04:53:16.899Z,1011.24
2022-09-23T04:53:52.478Z,1011.24
2022-09-23T04:54:24.354Z,1011.41
2022-09-23T04:54:56.152Z,1011.41
2022-09-23T04:55:26.046Z,1011.31
2022-09-23T04:55:59.805Z,1011.31
2022-09-23T04:56:31.991Z,1011.24
2022-09-23T04:56:54.616Z,1011.14
2022-09-23T04:57:17.278Z,1011.14
2022-09-23T04:57:52.077Z,1011.14
2022-09-23T04:58:23.971Z,1011.41
2022-09-23T04:58:57.332Z,1011.41
2022-09-23T04:59:28.201Z,1011.14
2022-09-23T04:59:59.900Z,1011.14
2022-09-23T05:00:31.974Z,1011.24
2022-09-23T05:00:54.575Z,1011.31
2022-09-23T05:01:16.977Z,1011.31
2022-09-23T05:01:52.088Z,1011.31
2022-09-23T05:02:24.035Z,1011.31
2022-09-23T05:02:56.982Z,1011.31
2022-09-23T05:03:28.807Z,1011.24
2022-09-23T05:03:59.939Z,1011.24
2022-09-23T05:04:32.173Z,1011.24
2022-09-23T05:04:54.877Z,1011.31
2022-09-23T05:05:17.352Z,1011.31
2022-09-23T05:05:52.120Z,1011.31
2022-09-23T05:06:23.842Z,1011.41
2022-09-23T05:07:02.231Z,1011.41
2022-09-23T05:07:25.953Z,1011.14
2022-09-23T05:08:00.722Z,1011.14
2022-09-23T05:08:31.995Z,1011.31
2022-09-23T05:08:54.707Z,1011.14
2022-09-23T05:09:17.849Z,1011.14
2022-09-23T05:09:52.283Z,1011.14
2022-09-23T05:10:24.092Z,1011.31
2022-09-23T05:10:56.018Z,1011.31
2022-09-23T05:11:26.242Z,1011.41
2022-09-23T05:12:00.213Z,1011.41
2022-09-23T05:12:32.629Z,1011.31
2022-09-23T05:12:57.349Z,1011.31
2022-09-23T05:13:17.633Z,1011.31
2022-09-23T05:13:52.233Z,1011.31
2022-09-23T05:14:24.135Z,1011.51
2022-09-23T05:14:56.778Z,1011.51
2022-09-23T05:15:27.090Z,1011.31
2022-09-23T05:16:00.483Z,1011.31
2022-09-23T05:16:32.328Z,1011.24
2022-09-23T05:16:55.038Z,1011.31
2022-09-23T05:17:18.479Z,1011.31
2022-09-23T05:18:00.189Z,1011.31
2022-09-23T05:18:24.440Z,1011.31
2022-09-23T05:18:55.978Z,1011.31
2022-09-23T05:19:31.744Z,1011.41
2022-09-23T05:19:59.934Z,1011.41
2022-09-23T05:20:32.017Z,1011.24
2022-09-23T05:20:54.846Z,1011.41
2022-09-23T05:21:20.974Z,1011.41
2022-09-23T05:21:52.108Z,1011.41
2022-09-23T05:22:24.498Z,1011.41
2022-09-23T05:22:56.549Z,1011.41
2022-09-23T05:23:26.194Z,1011.24
2022-09-23T05:23:59.991Z,1011.24
2022-09-23T05:24:31.897Z,1011.31
2022-09-23T05:24:54.591Z,1011.51
2022-09-23T05:25:19.437Z,1011.51
2022-09-23T05:25:52.127Z,1011.51
2022-09-23T05:26:23.982Z,1011.61
2022-09-23T05:26:55.959Z,1011.61
2022-09-23T05:27:25.999Z,1011.31
2022-09-23T05:28:05.392Z,1011.31
2022-09-23T05:28:32.654Z,1011.31
2022-09-23T05:28:55.239Z,1011.51
2022-09-23T05:29:18.492Z,1011.51
2022-09-23T05:29:52.966Z,1011.51
2022-09-23T05:30:24.289Z,1011.41
2022-09-23T05:30:56.497Z,1011.41
2022-09-23T05:31:26.131Z,1011.31
2022-09-23T05:32:00.895Z,1011.31
2022-09-23T05:32:32.216Z,1011.51
2022-09-23T05:32:55.000Z,1011.41
2022-09-23T05:33:17.762Z,1011.41
2022-09-23T05:33:52.384Z,1011.41
2022-09-23T05:34:24.866Z,1011.61
2022-09-23T05:34:56.011Z,1011.61
2022-09-23T05:35:26.036Z,1011.41
2022-09-23T05:35:59.979Z,1011.41
2022-09-23T05:36:36.984Z,1011.61
2022-09-23T05:36:54.742Z,1011.41
2022-09-23T05:37:18.754Z,1011.41
2022-09-23T05:37:53.540Z,1011.41
2022-09-23T05:38:23.850Z,1011.41
2022-09-23T05:38:56.124Z,1011.41
2022-09-23T05:39:26.190Z,1011.41
2022-09-23T05:40:00.813Z,1011.41
2022-09-23T05:40:32.183Z,1011.51
2022-09-23T05:40:54.804Z,1011.61
2022-09-23T05:41:17.145Z,1011.61
2022-09-23T05:41:52.163Z,1011.61
2022-09-23T05:42:24.290Z,1011.51
2022-09-23T05:42:55.843Z,1011.51
2022-09-23T05:43:26.288Z,1011.24
2022-09-23T05:44:00.238Z,1011.24
2022-09-23T05:44:32.973Z,1011.51
2022-09-23T05:44:55.642Z,1011.31
2022-09-23T05:45:26.250Z,1011.31
2022-09-23T05:45:52.510Z,1011.31
2022-09-23T05:46:24.761Z,1011.41
2022-09-23T05:46:56.929Z,1011.41
2022-09-23T05:47:27.942Z,1011.24
2022-09-23T05:48:00.416Z,1011.24
2022-09-23T05:48:32.277Z,1011.51
2022-09-23T05:48:59.879Z,1011.41
2022-09-23T05:49:17.866Z,1011.41
2022-09-23T05:49:59.524Z,1011.41
2022-09-23T05:50:23.938Z,1011.41
2022-09-23T05:50:56.465Z,1011.41
2022-09-23T05:51:30.762Z,1011.31
2022-09-23T05:52:00.241Z,1011.31
2022-09-23T05:52:32.409Z,1011.61
2022-09-23T05:52:54.952Z,1011.51
2022-09-23T05:53:17.560Z,1011.51
2022-09-23T05:53:52.227Z,1011.51
2022-09-23T05:54:24.215Z,1011.41
2022-09-23T05:54:56.304Z,1011.41
2022-09-23T05:55:26.164Z,1011.51
2022-09-23T05:56:00.446Z,1011.51
2022-09-23T05:56:32.005Z,1011.31
2022-09-23T05:56:54.748Z,1011.61
2022-09-23T05:57:17.666Z,1011.61
2022-09-23T05:57:52.049Z,1011.61
2022-09-23T05:58:24.142Z,1011.41
2022-09-23T05:58:56.608Z,1011.41
2022-09-23T05:59:26.039Z,1011.51
2022-09-23T05:59:59.907Z,1011.51
2022-09-23T06:00:32.043Z,1011.51
2022-09-23T06:00:54.796Z,1011.51
2022-09-23T06:01:17.261Z,1011.51
2022-09-23T06:01:56.287Z,1011.51
2022-09-23T06:02:23.968Z,1011.41
2022-09-23T06:02:56.671Z,1011.41
2022-09-23T06:03:26.013Z,1011.31
2022-09-23T06:04:00.240Z,1011.31
2022-09-23T06:04:32.197Z,1011.51
2022-09-23T06:04:54.872Z,1011.24
2022-09-23T06:05:17.882Z,1011.24
2022-09-23T06:05:52.525Z,1011.24
2022-09-23T06:06:23.911Z,1011.31
2022-09-23T06:06:56.072Z,1011.31